Earle Naval Weapons Station, New Jersey
Current Conditions -  °F | °C
As of 10:15 PM on Thursday 27 Nov 2014 (Local Time) from KBLM Reporting Station
Broken Clouds Broken Clouds  
Wind Chill: 23°   Ceiling: 4100
Heat Index: 32°   Visibility: 10mi
Dew Point: 19°   Wind: 13mph
Humidity: 60%   Direction: 300°WNW
Pressure: 30.06"   Gusts: NA
Location:  40.2834°N, 74.169°W
Report Text: KBLM 280315Z AUTO 30011KT 10SM BKN041 00/M07 A3006 RMK AO1
Loading
Personal Weather Stations






























Interactive Weather Map New forecast layout! Learn more

10-Day Weather Forecast

Advertisements
Track Severe Weather on mobile